Time;durP1;ratioP1;P1;durP2;ratioP2;P2;SDS_P1;SDS_P2;PMS_P1;PMS_P2;Temp;Humidity;BMP_temperature;BMP_pressure;BME280_temperature;BME280_humidity;BME280_pressure;Samples;Min_cycle;Max_cycle;Signal;HPM_P1;HPM_P2
2021/04/15 00:00:31;;;;;;;0.57;0.50;;;;;;;25.95;26.08;97415.94;5035369;28;20669;-27
2021/04/15 00:03:01;;;;;;;0.70;0.50;;;;;;;25.95;26.22;97413.31;5030358;28;20185;-25
2021/04/15 00:05:28;;;;;;;0.68;0.60;;;;;;;25.94;26.05;97414.25;5034423;28;20768;-26
2021/04/15 00:07:54;;;;;;;1.40;0.55;;;;;;;25.93;26.15;97418.63;5052492;28;20028;-27
2021/04/15 00:10:21;;;;;;;0.60;0.50;;;;;;;25.94;26.23;97419.50;5035509;28;20041;-26
2021/04/15 00:12:46;;;;;;;1.58;0.60;;;;;;;25.93;26.15;97413.38;5032007;28;20807;-26
2021/04/15 00:15:13;;;;;;;0.40;0.40;;;;;;;25.93;26.05;97417.78;5037726;28;20086;-27
2021/04/15 00:17:38;;;;;;;1.42;0.63;;;;;;;25.93;26.02;97412.53;5036719;28;20017;-24
2021/04/15 00:20:06;;;;;;;1.77;0.40;;;;;;;25.93;26.08;97412.53;5035838;28;20028;-29
2021/04/15 00:22:31;;;;;;;0.50;0.40;;;;;;;25.92;26.12;97414.31;5038835;28;20031;-24
2021/04/15 00:24:59;;;;;;;0.47;0.40;;;;;;;25.92;26.04;97410.81;5036383;28;20492;-24
2021/04/15 00:27:24;;;;;;;0.95;0.40;;;;;;;25.93;26.12;97407.28;5044387;28;20036;-27
2021/04/15 00:29:49;;;;;;;0.93;0.57;;;;;;;25.92;26.11;97406.44;5041092;28;20024;-25
2021/04/15 00:32:15;;;;;;;0.80;0.40;;;;;;;25.92;26.04;97405.56;5037557;28;20017;-24
2021/04/15 00:34:40;;;;;;;0.90;0.50;;;;;;;25.91;26.08;97409.13;5036904;28;20052;-26
2021/04/15 00:37:06;;;;;;;2.72;0.50;;;;;;;25.91;26.12;97399.47;5035291;28;20032;-27
2021/04/15 00:39:31;;;;;;;1.27;0.63;;;;;;;25.91;26.01;97398.63;5036050;28;20122;-26
2021/04/15 00:41:57;;;;;;;0.52;0.50;;;;;;;25.91;26.18;97399.47;5035733;28;20417;-28
2021/04/15 00:44:22;;;;;;;0.82;0.50;;;;;;;25.90;26.07;97391.66;5036239;28;20287;-26
2021/04/15 00:47:01;;;;;;;0.77;0.32;;;;;;;25.90;26.06;97391.66;5033920;28;20033;-25
2021/04/15 00:49:28;;;;;;;0.88;0.45;;;;;;;25.89;25.97;97390.81;5036294;28;20047;-27
2021/04/15 00:51:56;;;;;;;0.43;0.40;;;;;;;25.89;26.12;97384.72;5032967;28;20036;-25
2021/04/15 00:54:44;;;;;;;0.95;0.50;;;;;;;25.88;26.29;97388.22;5038404;28;20119;-25
2021/04/15 00:57:25;;;;;;;0.40;0.40;;;;;;;25.89;25.99;97389.97;5039235;28;20048;-29
2021/04/15 00:59:50;;;;;;;0.40;0.40;;;;;;;25.89;25.97;97389.97;5025367;28;20447;-31
2021/04/15 01:02:17;;;;;;;0.88;0.40;;;;;;;25.89;26.23;97388.19;5045961;28;20027;-26
2021/04/15 01:04:42;;;;;;;0.68;0.50;;;;;;;25.88;26.24;97383.00;5029909;28;20032;-23
2021/04/15 01:07:08;;;;;;;0.50;0.50;;;;;;;25.88;26.12;97377.72;5042199;28;20540;-30
2021/04/15 01:09:33;;;;;;;0.50;0.40;;;;;;;25.87;26.14;97376.03;5040796;28;20035;-27
2021/04/15 01:12:18;;;;;;;1.15;0.57;;;;;;;25.87;26.16;97376.03;5046218;28;20031;-26
2021/04/15 01:14:50;;;;;;;2.05;0.40;;;;;;;25.87;26.16;97381.28;5040004;28;20040;-26
2021/04/15 01:17:36;;;;;;;0.68;0.40;;;;;;;25.86;26.06;97379.59;5046016;28;20504;-23
2021/04/15 01:20:13;;;;;;;0.40;0.40;;;;;;;25.86;25.96;97376.97;5038455;28;20029;-24
2021/04/15 01:23:01;;;;;;;1.55;0.60;;;;;;;25.86;26.17;97382.22;5043787;28;20496;-25
2021/04/15 01:25:50;;;;;;;0.60;0.45;;;;;;;25.86;26.10;97382.22;5042127;28;20885;-24
2021/04/15 01:28:21;;;;;;;1.50;0.50;;;;;;;25.85;25.97;97383.16;5034745;28;20052;-25
2021/04/15 01:31:04;;;;;;;1.02;0.52;;;;;;;25.84;26.16;97377.03;5033365;28;20158;-25
2021/04/15 01:34:00;;;;;;;0.90;0.50;;;;;;;25.83;26.01;97376.16;5032120;28;20572;-26
2021/04/15 01:36:32;;;;;;;3.72;0.75;;;;;;;25.82;26.07;97374.47;5030992;28;20072;-24
2021/04/15 01:39:19;;;;;;;2.78;0.60;;;;;;;25.83;26.27;97375.34;5016806;28;20288;-27
2021/04/15 01:42:00;;;;;;;0.30;0.30;;;;;;;25.82;26.17;97379.72;5034105;28;20028;-25
2021/04/15 01:44:37;;;;;;;1.27;0.60;;;;;;;25.81;26.09;97372.75;5018178;28;20679;-25
2021/04/15 01:47:07;;;;;;;0.50;0.40;;;;;;;25.77;26.00;97371.19;5029594;28;20025;-24
2021/04/15 01:49:35;;;;;;;2.15;0.38;;;;;;;25.82;26.21;97378.88;5031483;28;20442;-25
2021/04/15 01:52:00;;;;;;;0.90;0.50;;;;;;;25.81;26.09;97375.38;5019416;28;20028;-26
2021/04/15 01:54:39;;;;;;;0.80;0.40;;;;;;;25.80;26.04;97376.31;5018420;28;20053;-26
2021/04/15 01:57:15;;;;;;;0.60;0.40;;;;;;;25.81;26.23;97377.16;5032296;28;20585;-30
2021/04/15 02:00:01;;;;;;;0.82;0.60;;;;;;;25.79;26.12;97379.88;5031808;28;20036;-26
2021/04/15 02:02:50;;;;;;;1.40;0.47;;;;;;;25.79;26.12;97374.63;5017700;28;20033;-27
2021/04/15 02:05:30;;;;;;;0.35;0.35;;;;;;;25.79;26.22;97369.38;5020743;28;20148;-30
2021/04/15 02:08:07;;;;;;;0.73;0.57;;;;;;;25.79;26.14;97377.25;5018667;28;20050;-25
2021/04/15 02:10:33;;;;;;;0.38;0.38;;;;;;;25.78;26.07;97372.88;5024916;28;20028;-24
2021/04/15 02:12:59;;;;;;;0.45;0.45;;;;;;;25.79;26.04;97371.13;5023680;28;20021;-28
2021/04/15 02:15:30;;;;;;;0.85;0.63;;;;;;;25.78;26.03;97367.63;5034217;28;20086;-26
2021/04/15 02:17:59;;;;;;;0.55;0.50;;;;;;;25.78;26.24;97367.63;5029713;28;20032;-25
2021/04/15 02:20:25;;;;;;;0.40;0.40;;;;;;;25.78;26.18;97374.69;5022142;28;20028;-26
2021/04/15 02:23:02;;;;;;;0.65;0.45;;;;;;;25.78;26.23;97369.44;5041040;28;20083;-23
2021/04/15 02:25:43;;;;;;;0.70;0.47;;;;;;;25.77;26.16;97371.19;5045981;28;20052;-27
2021/04/15 02:28:22;;;;;;;0.88;0.40;;;;;;;25.77;26.15;97376.44;5028713;28;20035;-23
2021/04/15 02:31:00;;;;;;;0.60;0.40;;;;;;;25.77;26.20;97376.44;5032572;28;20029;-24
2021/04/15 02:33:38;;;;;;;0.70;0.40;;;;;;;25.76;26.04;97374.75;5030661;28;20033;-29
2021/04/15 02:36:05;;;;;;;2.58;0.98;;;;;;;25.76;26.15;97374.75;5047756;28;20032;-26
2021/04/15 02:38:33;;;;;;;0.90;0.40;;;;;;;25.75;26.22;97367.81;5043757;28;20036;-26
2021/04/15 02:41:00;;;;;;;1.30;0.60;;;;;;;25.75;26.26;97378.28;5041404;28;20033;-27
2021/04/15 02:43:51;;;;;;;0.50;0.50;;;;;;;25.75;26.05;97374.81;5038222;28;20131;-23
2021/04/15 02:46:25;;;;;;;1.38;0.50;;;;;;;25.72;26.11;97375.78;5033146;28;20101;-25
2021/04/15 02:48:51;;;;;;;0.40;0.40;;;;;;;25.75;26.20;97378.28;5020264;28;20126;-27
2021/04/15 02:51:20;;;;;;;0.50;0.40;;;;;;;25.74;26.16;97376.56;5018233;28;20036;-27
2021/04/15 02:53:55;;;;;;;0.40;0.40;;;;;;;25.75;26.24;97372.19;5032878;28;20520;-30
2021/04/15 02:56:43;;;;;;;0.52;0.30;;;;;;;25.74;26.17;97376.56;5024387;28;20040;-26
2021/04/15 02:59:11;;;;;;;0.80;0.45;;;;;;;25.74;26.02;97373.94;5036348;28;20571;-29
2021/04/15 03:01:43;;;;;;;0.32;0.32;;;;;;;25.74;26.23;97375.75;5015851;28;20163;-25
2021/04/15 03:04:12;;;;;;;0.50;0.50;;;;;;;25.74;26.08;97376.56;5035253;28;20675;-29
2021/04/15 03:06:37;;;;;;;0.30;0.30;;;;;;;25.73;26.36;97369.63;5022127;28;20611;-26
2021/04/15 03:09:05;;;;;;;0.35;0.30;;;;;;;25.73;26.20;97374.03;5017587;28;20024;-25
2021/04/15 03:11:40;;;;;;;0.35;0.35;;;;;;;25.72;26.40;97362.66;5028130;28;20036;-25
2021/04/15 03:14:08;;;;;;;0.55;0.43;;;;;;;25.71;26.09;97366.22;5051180;28;20024;-26
2021/04/15 03:16:37;;;;;;;0.55;0.52;;;;;;;25.71;26.13;97360.97;5042839;28;20028;-24
2021/04/15 03:19:18;;;;;;;0.55;0.40;;;;;;;25.72;26.24;97361.81;5020103;28;20109;-24
2021/04/15 03:22:00;;;;;;;0.60;0.45;;;;;;;25.70;26.18;97364.50;5046316;28;20656;-25
2021/04/15 03:24:31;;;;;;;2.35;0.50;;;;;;;25.71;26.21;97366.22;5045558;28;20039;-26
2021/04/15 03:27:52;;;;;;;1.55;0.43;;;;;;;25.71;26.29;97366.22;5048137;28;20485;-25
2021/04/15 03:30:22;;;;;;;0.40;0.40;;;;;;;25.69;26.34;97373.28;5030578;28;20063;-24
2021/04/15 03:32:51;;;;;;;1.40;0.40;;;;;;;25.69;26.17;97373.28;5044494;28;20035;-23
2021/04/15 03:35:18;;;;;;;1.38;0.40;;;;;;;25.68;26.17;97376.84;5047366;28;20028;-29
2021/04/15 03:37:55;;;;;;;0.47;0.43;;;;;;;25.68;26.20;97376.84;5038266;28;20151;-24
2021/04/15 03:40:23;;;;;;;1.00;0.40;;;;;;;25.68;26.09;97376.84;5044900;28;20107;-25
2021/04/15 03:42:54;;;;;;;0.40;0.40;;;;;;;25.67;26.22;97370.72;5047549;28;20086;-26
2021/04/15 03:45:48;;;;;;;0.33;0.33;;;;;;;25.67;26.33;97373.34;5042583;28;20021;-24
2021/04/15 03:48:28;;;;;;;0.90;0.50;;;;;;;25.67;26.10;97373.34;5045843;28;20036;-25
2021/04/15 03:50:59;;;;;;;0.93;0.50;;;;;;;25.67;26.14;97364.66;5028796;28;20032;-26
2021/04/15 03:53:31;;;;;;;0.70;0.52;;;;;;;25.66;26.32;97368.19;5037317;28;20036;-24
2021/04/15 03:55:59;;;;;;;0.38;0.38;;;;;;;25.65;26.35;97366.47;5041815;28;21451;-26
2021/04/15 03:58:36;;;;;;;1.00;0.57;;;;;;;25.66;26.22;97370.81;5018441;28;20024;-23
2021/04/15 04:01:10;;;;;;;0.63;0.40;;;;;;;25.65;26.26;97371.72;5034577;28;20031;-29
2021/04/15 04:03:38;;;;;;;0.30;0.30;;;;;;;25.65;26.32;97374.34;5018608;28;20024;-27
2021/04/15 04:06:08;;;;;;;1.20;0.52;;;;;;;25.65;26.15;97377.84;5016742;28;20029;-25
2021/04/15 04:08:48;;;;;;;0.60;0.60;;;;;;;25.64;26.33;97383.16;5032246;28;20136;-27
2021/04/15 04:11:15;;;;;;;0.52;0.40;;;;;;;25.64;26.17;97381.38;5035204;28;20027;-24
2021/04/15 04:13:43;;;;;;;0.90;0.70;;;;;;;25.64;26.24;97380.53;5034018;28;20029;-26
2021/04/15 04:16:11;;;;;;;0.45;0.43;;;;;;;25.63;26.27;97379.66;5018137;28;20029;-26
2021/04/15 04:18:55;;;;;;;9.48;1.58;;;;;;;25.63;26.24;97379.66;5033221;28;20039;-24
2021/04/15 04:21:34;;;;;;;1.38;0.88;;;;;;;25.59;26.27;97372.00;5033962;28;20036;-25
2021/04/15 04:24:21;;;;;;;0.98;0.50;;;;;;;25.62;26.41;97390.25;5034141;28;20074;-22
2021/04/15 04:27:01;;;;;;;0.93;0.47;;;;;;;25.62;26.26;97385.84;5035216;28;20059;-25
2021/04/15 04:29:55;;;;;;;2.92;0.90;;;;;;;25.61;26.24;97376.25;5018204;28;20028;-26
2021/04/15 04:32:22;;;;;;;1.30;0.63;;;;;;;25.63;26.16;97379.66;5028309;28;20054;-26
2021/04/15 04:35:07;;;;;;;0.95;0.77;;;;;;;25.62;26.29;97387.63;5018620;28;20577;-26
2021/04/15 04:37:44;;;;;;;1.40;0.57;;;;;;;25.62;26.21;97390.25;5028857;28;20483;-27
2021/04/15 04:40:25;;;;;;;1.52;0.60;;;;;;;25.63;26.18;97384.06;5023459;28;20043;-24
2021/04/15 04:42:59;;;;;;;1.33;0.70;;;;;;;25.62;26.24;97382.38;5032873;28;20029;-25
2021/04/15 04:45:25;;;;;;;1.58;0.68;;;;;;;25.61;26.40;97391.16;5022231;28;20074;-27
2021/04/15 04:48:00;;;;;;;1.15;0.65;;;;;;;25.62;26.30;97398.13;5030527;28;20036;-24
2021/04/15 04:50:28;;;;;;;1.48;0.80;;;;;;;25.62;26.21;97395.50;5016801;28;20701;-24
2021/04/15 04:53:02;;;;;;;0.73;0.68;;;;;;;25.60;26.22;97400.81;5034860;28;20027;-27
2021/04/15 04:55:37;;;;;;;0.57;0.57;;;;;;;25.61;26.14;97396.38;5008105;28;20086;-28
2021/04/15 04:58:07;;;;;;;0.50;0.50;;;;;;;25.60;26.17;97394.69;5038383;28;20021;-23
2021/04/15 05:00:39;;;;;;;2.15;0.85;;;;;;;25.60;26.14;97395.56;5035873;28;20129;-26
2021/04/15 05:03:04;;;;;;;1.15;0.50;;;;;;;25.59;26.15;97398.25;5028615;28;20021;-23
2021/04/15 05:05:32;;;;;;;1.10;0.60;;;;;;;25.60;26.32;97405.19;5038948;28;20038;-28
2021/04/15 05:08:08;;;;;;;1.55;0.70;;;;;;;25.60;26.19;97399.94;5037122;28;20614;-23
2021/04/15 05:10:34;;;;;;;0.90;0.70;;;;;;;25.54;26.20;97396.63;5018306;28;20404;-24
2021/04/15 05:13:18;;;;;;;1.90;0.68;;;;;;;25.59;26.06;97403.50;5019737;28;20496;-27
2021/04/15 05:15:44;;;;;;;0.57;0.52;;;;;;;25.59;26.37;97417.44;5033156;28;20760;-25
2021/04/15 05:18:11;;;;;;;0.73;0.50;;;;;;;25.57;26.36;97412.28;5028193;28;20108;-22
2021/04/15 05:20:37;;;;;;;0.75;0.52;;;;;;;25.59;26.09;97408.75;5039090;28;20620;-27
2021/04/15 05:23:07;;;;;;;0.98;0.57;;;;;;;25.58;26.10;97418.38;5024856;28;20009;-27
2021/04/15 05:25:39;;;;;;;3.80;0.60;;;;;;;25.59;26.17;97420.06;5032711;28;20914;-29
2021/04/15 05:28:07;;;;;;;0.63;0.63;;;;;;;25.60;26.10;97426.19;5019873;28;20032;-26
2021/04/15 05:30:47;;;;;;;1.63;0.60;;;;;;;25.59;26.23;97421.88;5032492;28;20456;-25
2021/04/15 05:33:16;;;;;;;4.15;0.68;;;;;;;25.59;26.18;97427.13;5015352;28;20040;-27
2021/04/15 05:35:43;;;;;;;1.17;0.63;;;;;;;25.57;26.15;97433.28;5018617;28;20028;-26
2021/04/15 05:38:10;;;;;;;0.60;0.60;;;;;;;25.57;26.09;97424.53;5017760;28;20028;-25
2021/04/15 05:40:36;;;;;;;0.82;0.80;;;;;;;25.59;26.16;97429.75;5013068;28;20036;-24
2021/04/15 05:43:07;;;;;;;1.55;0.50;;;;;;;25.57;26.21;97425.41;5015619;28;20074;-27
2021/04/15 05:45:32;;;;;;;1.15;0.80;;;;;;;25.57;26.15;97425.41;5031158;28;20126;-22
2021/04/15 05:48:17;;;;;;;0.73;0.60;;;;;;;25.57;26.14;97428.03;5015814;28;20855;-27
2021/04/15 05:50:48;;;;;;;1.10;0.60;;;;;;;25.57;26.20;97422.78;5031045;28;20559;-27
2021/04/15 05:53:22;;;;;;;1.05;0.57;;;;;;;25.57;26.08;97422.78;5015920;28;20386;-22
2021/04/15 05:55:52;;;;;;;0.70;0.70;;;;;;;25.57;26.21;97422.78;5018627;28;20039;-25
2021/04/15 05:58:27;;;;;;;1.70;0.82;;;;;;;25.57;26.10;97420.16;5033485;28;20107;-22
2021/04/15 06:00:56;;;;;;;1.17;0.80;;;;;;;25.57;26.09;97428.03;5018578;28;22509;-29
2021/04/15 06:03:26;;;;;;;0.68;0.65;;;;;;;25.52;26.15;97419.44;5032578;28;20078;-23
2021/04/15 06:05:56;;;;;;;0.90;0.80;;;;;;;25.56;26.13;97423.69;5031957;28;20037;-23
2021/04/15 06:08:22;;;;;;;0.95;0.80;;;;;;;25.56;26.22;97426.31;5031329;28;20024;-24
2021/04/15 06:10:47;;;;;;;0.60;0.55;;;;;;;25.55;26.09;97427.19;5025624;28;20028;-25
2021/04/15 06:13:19;;;;;;;1.00;0.85;;;;;;;25.55;26.17;97427.19;5040368;28;20013;-25
2021/04/15 06:16:06;;;;;;;1.77;0.90;;;;;;;25.54;26.08;97433.38;5031847;28;20032;-24
2021/04/15 06:18:43;;;;;;;0.90;0.70;;;;;;;25.56;26.22;97435.97;5042362;28;20051;-23
2021/04/15 06:21:19;;;;;;;0.77;0.70;;;;;;;25.56;26.12;97436.81;5020282;28;20021;-26
2021/04/15 06:23:51;;;;;;;1.25;0.80;;;;;;;25.56;26.28;97430.72;5038253;28;20157;-24
2021/04/15 06:26:55;;;;;;;0.90;0.80;;;;;;;25.57;26.18;97438.53;5017062;28;20036;-24
2021/04/15 06:29:56;;;;;;;1.10;1.00;;;;;;;25.59;26.04;97440.22;5030791;28;20618;-28
2021/04/15 06:32:29;;;;;;;27.52;2.70;;;;;;;25.59;26.32;97442.84;5023076;28;20053;-24
2021/04/15 06:34:56;;;;;;;23.05;1.63;;;;;;;25.57;26.52;97443.78;5029890;28;20025;-25
2021/04/15 06:38:01;;;;;;;2.67;0.88;;;;;;;25.58;26.30;97444.63;5035625;28;20060;-22
2021/04/15 06:40:46;;;;;;;2.58;0.82;;;;;;;25.60;26.27;97452.44;4966567;28;20556;-30
2021/04/15 06:43:13;;;;;;;5.28;1.00;;;;;;;25.60;26.37;97441.94;4977008;28;20033;-25
2021/04/15 06:46:03;;;;;;;1.63;1.13;;;;;;;25.61;26.50;97451.50;5017933;28;20752;-23
2021/04/15 06:48:51;;;;;;;2.70;1.10;;;;;;;25.62;26.29;97445.38;5036707;28;20017;-23
2021/04/15 06:52:03;;;;;;;2.22;1.27;;;;;;;25.61;26.41;97451.50;5057292;28;20080;-25
2021/04/15 06:55:10;;;;;;;4.60;1.20;;;;;;;25.62;26.48;97443.56;5044826;28;20067;-26
2021/04/15 06:58:23;;;;;;;2.42;1.10;;;;;;;25.63;26.61;97447.91;5059749;28;20040;-25
2021/04/15 07:00:54;;;;;;;3.30;1.17;;;;;;;25.63;26.52;97447.91;5023641;28;20174;-27
2021/04/15 07:03:41;;;;;;;3.55;1.08;;;;;;;25.65;26.56;97455.72;5058967;28;20249;-21
2021/04/15 07:06:32;;;;;;;2.20;0.93;;;;;;;25.66;26.43;97445.16;5061055;28;20038;-25
2021/04/15 07:09:23;;;;;;;2.97;1.30;;;;;;;25.67;26.57;97443.41;5059114;28;20093;-27
2021/04/15 07:12:23;;;;;;;4.93;1.38;;;;;;;25.69;26.54;97446.78;5062933;28;20967;-26
2021/04/15 07:15:04;;;;;;;3.63;1.23;;;;;;;25.70;26.55;97443.25;5044946;28;20891;-26
2021/04/15 07:17:41;;;;;;;1.40;1.17;;;;;;;25.72;26.53;97443.19;5060767;28;20035;-24
2021/04/15 07:20:37;;;;;;;2.95;1.50;;;;;;;25.71;26.74;97442.34;5051299;28;20025;-27
2021/04/15 07:23:25;;;;;;;3.28;1.23;;;;;;;25.73;26.66;97443.13;5059514;28;20424;-27
2021/04/15 07:26:25;;;;;;;1.20;0.80;;;;;;;25.75;26.68;97451.81;5064429;28;20528;-24
2021/04/15 07:29:08;;;;;;;3.35;1.10;;;;;;;25.75;26.57;97449.19;5048610;28;20042;-28
2021/04/15 07:31:59;;;;;;;1.90;1.10;;;;;;;25.76;26.68;97448.25;5058474;28;20115;-24
2021/04/15 07:34:45;;;;;;;2.90;0.98;;;;;;;25.78;26.52;97451.66;5062572;28;20553;-29
2021/04/15 07:37:24;;;;;;;2.50;1.20;;;;;;;25.79;26.54;97448.13;5062640;28;20587;-26
2021/04/15 07:40:04;;;;;;;2.83;1.30;;;;;;;25.81;26.59;97441.03;5055848;28;20032;-26
2021/04/15 07:42:54;;;;;;;3.80;1.38;;;;;;;25.82;26.50;97445.34;5064436;28;20028;-24
2021/04/15 07:45:37;;;;;;;3.58;1.23;;;;;;;25.83;26.46;97452.31;5063416;28;20498;-23
2021/04/15 07:48:05;;;;;;;1.65;1.02;;;;;;;25.86;26.48;97453.09;5058071;28;20622;-23
2021/04/15 07:50:58;;;;;;;2.33;1.40;;;;;;;25.86;26.70;97443.47;5058407;28;20135;-27
2021/04/15 07:53:27;;;;;;;60.08;3.92;;;;;;;25.87;25.54;97454.81;5062550;28;20047;-24
2021/04/15 07:56:30;;;;;;;32.10;2.78;;;;;;;25.86;25.37;97453.09;5062243;28;20525;-25
2021/04/15 07:59:28;;;;;;;7.22;1.30;;;;;;;25.83;25.25;97454.94;5062713;28;20654;-24
2021/04/15 08:02:12;;;;;;;7.32;1.55;;;;;;;25.83;25.40;97449.69;5061823;28;20024;-23
2021/04/15 08:05:15;;;;;;;6.15;1.30;;;;;;;25.82;25.64;97453.22;5062646;28;20558;-25
2021/04/15 08:08:00;;;;;;;4.05;1.70;;;;;;;25.81;25.67;97454.16;5063048;28;20032;-24
2021/04/15 08:10:32;;;;;;;4.18;1.33;;;;;;;25.81;25.71;97466.41;5059649;28;20040;-25
2021/04/15 08:13:35;;;;;;;2.88;1.23;;;;;;;25.81;25.76;97461.16;5064414;28;20050;-27
2021/04/15 08:16:19;;;;;;;6.10;1.67;;;;;;;25.80;25.69;97456.84;5061253;28;20032;-28
2021/04/15 08:18:47;;;;;;;4.65;1.30;;;;;;;25.80;25.97;97462.97;5064890;28;20136;-26
2021/04/15 08:21:43;;;;;;;2.75;1.27;;;;;;;25.79;25.85;97461.25;5061965;28;20555;-27
2021/04/15 08:24:15;;;;;;;3.42;2.33;;;;;;;25.75;23.28;97458.81;5061131;28;20773;-25
2021/04/15 08:27:05;;;;;;;8.07;2.95;;;;;;;25.63;21.47;97462.81;5058769;28;20444;-24
2021/04/15 08:29:59;;;;;;;6.93;2.60;;;;;;;25.43;21.14;97459.19;5056862;28;20651;-25
2021/04/15 08:32:46;;;;;;;11.10;3.10;;;;;;;25.19;21.30;97459.28;5063266;28;20464;-29
2021/04/15 08:35:12;;;;;;;13.55;3.63;;;;;;;25.08;21.94;97464.09;5067381;28;20038;-24
2021/04/15 08:38:12;;;;;;;22.73;4.43;;;;;;;25.00;22.28;97464.41;5065592;28;20020;-27
2021/04/15 08:41:23;;;;;;;24.92;4.97;;;;;;;24.98;22.84;97461.84;5057812;28;20036;-24
2021/04/15 08:44:09;;;;;;;23.30;3.72;;;;;;;24.99;22.91;97463.56;5063384;28;20054;-27
2021/04/15 08:46:59;;;;;;;17.45;3.35;;;;;;;25.02;23.32;97466.03;5063416;28;20091;-29
2021/04/15 08:49:30;;;;;;;13.80;3.53;;;;;;;25.04;23.15;97466.84;5065004;28;20850;-26
2021/04/15 08:52:29;;;;;;;11.38;3.40;;;;;;;25.09;23.37;97455.34;5066949;28;20028;-25
2021/04/15 08:55:07;;;;;;;15.65;3.00;;;;;;;25.12;23.44;97469.16;5064637;28;20040;-25
2021/04/15 08:57:38;;;;;;;10.90;2.95;;;;;;;25.16;23.64;97462.88;5066954;28;20089;-25
2021/04/15 09:00:41;;;;;;;12.63;3.00;;;;;;;25.18;23.79;97463.66;5067939;28;20031;-25
2021/04/15 09:03:32;;;;;;;9.95;3.03;;;;;;;25.23;23.66;97460.00;5066839;28;20146;-25
2021/04/15 09:06:22;;;;;;;8.13;2.40;;;;;;;25.26;23.86;97458.13;5067100;28;20036;-25
2021/04/15 09:09:25;;;;;;;10.18;2.72;;;;;;;25.29;23.86;97450.13;5068938;28;20119;-24
2021/04/15 09:12:16;;;;;;;10.55;2.70;;;;;;;25.34;23.99;97462.19;5068424;28;20350;-24
2021/04/15 09:15:10;;;;;;;6.40;2.70;;;;;;;25.37;24.14;97451.59;5051994;28;20039;-25
2021/04/15 09:17:41;;;;;;;7.20;2.45;;;;;;;25.39;24.03;97449.75;5067595;28;20058;-26
2021/04/15 09:20:17;;;;;;;9.57;2.75;;;;;;;25.42;24.27;97447.00;5069092;28;20754;-22
2021/04/15 09:22:59;;;;;;;7.53;2.25;;;;;;;25.44;24.22;97453.88;5064352;28;20660;-26
2021/04/15 09:25:43;;;;;;;8.77;2.22;;;;;;;25.47;24.27;97447.66;5066085;28;20064;-25
2021/04/15 09:28:27;;;;;;;6.50;2.10;;;;;;;25.49;24.34;97443.22;5068811;28;20024;-27
2021/04/15 09:31:14;;;;;;;7.40;2.10;;;;;;;25.50;24.47;97455.41;5048735;28;20035;-26
2021/04/15 09:33:42;;;;;;;8.15;2.15;;;;;;;25.52;24.34;97450.94;5061827;28;20031;-26
2021/04/15 09:36:49;;;;;;;7.05;1.90;;;;;;;25.55;24.62;97448.19;5067549;28;20790;-26
2021/04/15 09:39:20;;;;;;;5.93;1.80;;;;;;;25.57;24.51;97442.91;5066492;28;20080;-25
2021/04/15 09:42:26;;;;;;;4.60;1.75;;;;;;;25.60;24.72;97452.44;5065590;28;20028;-27
2021/04/15 09:45:15;;;;;;;4.82;1.80;;;;;;;25.61;24.80;97452.38;5068865;28;20029;-24
2021/04/15 09:47:43;;;;;;;2.80;1.70;;;;;;;25.63;24.81;97447.06;5066752;28;20112;-26
2021/04/15 09:50:20;;;;;;;4.07;1.75;;;;;;;25.65;24.74;97445.22;5067931;28;20508;-27
2021/04/15 09:53:17;;;;;;;4.22;1.55;;;;;;;25.65;24.87;97451.34;5064349;28;20065;-25
2021/04/15 09:55:50;;;;;;;5.10;1.30;;;;;;;25.67;24.87;97448.66;5065457;28;20138;-26
2021/04/15 09:58:40;;;;;;;4.55;1.60;;;;;;;25.68;24.97;97451.22;5065977;28;20115;-25
2021/04/15 10:01:26;;;;;;;7.13;1.85;;;;;;;25.69;25.03;97445.03;5066577;28;20028;-26
2021/04/15 10:04:12;;;;;;;3.22;1.50;;;;;;;25.70;24.98;97443.25;5066125;28;20028;-26
2021/04/15 10:06:42;;;;;;;5.03;1.67;;;;;;;25.70;25.00;97441.47;5049064;28;20029;-23
2021/04/15 10:09:28;;;;;;;4.13;1.70;;;;;;;25.73;25.09;97437.88;5048928;28;20566;-26
2021/04/15 10:12:26;;;;;;;5.18;1.55;;;;;;;25.73;24.92;97435.25;5065303;28;20519;-23
2021/04/15 10:15:08;;;;;;;6.85;1.73;;;;;;;25.74;25.08;97434.31;5065511;28;20090;-28
2021/04/15 10:17:45;;;;;;;;;;;;;;;25.76;25.25;97436.88;5065585;28;20039;-23
2021/04/15 10:20:26;;;;;;;4.35;1.75;;;;;;;25.77;25.16;97428.94;5065967;28;19991;-26
2021/04/15 10:23:39;;;;;;;3.10;1.45;;;;;;;25.77;25.15;97431.56;5060110;28;20466;-28
2021/04/15 10:26:23;;;;;;;;;;;;;;;25.78;25.20;97429.81;5050693;28;20043;-26
2021/04/15 10:28:48;;;;;;;3.00;1.23;;;;;;;25.79;25.20;97427.13;5058215;28;19923;-24
2021/04/15 10:31:22;;;;;;;3.00;1.20;;;;;;;25.77;25.13;97421.06;5067865;28;20020;-23
2021/04/15 10:34:30;;;;;;;4.70;1.45;;;;;;;25.77;25.17;97423.69;5065156;28;20024;-23
2021/04/15 10:37:13;;;;;;;4.05;1.30;;;;;;;25.79;25.37;97421.00;5060616;28;20039;-24
2021/04/15 10:40:13;;;;;;;3.95;1.42;;;;;;;25.79;25.31;97413.13;5061610;28;20024;-25
2021/04/15 10:43:13;;;;;;;3.35;1.20;;;;;;;25.80;25.26;97407.81;5067872;28;20051;-25
2021/04/15 10:46:05;;;;;;;4.15;1.10;;;;;;;25.80;25.35;97407.81;5064838;28;20024;-24
2021/04/15 10:48:43;;;;;;;3.55;1.10;;;;;;;25.82;25.45;97405.97;5063734;28;20043;-25
2021/04/15 10:51:23;;;;;;;3.58;1.25;;;;;;;25.82;25.30;97405.97;5063132;28;20036;-25
2021/04/15 10:53:53;;;;;;;5.15;1.30;;;;;;;25.82;25.39;97405.13;5065651;28;20892;-25
2021/04/15 10:56:25;;;;;;;2.50;1.23;;;;;;;25.83;25.41;97407.66;5045267;28;20028;-23
2021/04/15 10:58:59;;;;;;;4.72;1.17;;;;;;;25.83;25.39;97402.41;5068635;28;20092;-24
2021/04/15 11:01:28;;;;;;;5.13;1.40;;;;;;;25.85;25.49;97398.91;5064649;28;20043;-23
2021/04/15 11:03:55;;;;;;;2.70;1.00;;;;;;;25.86;25.48;97400.59;5069415;28;20115;-25
2021/04/15 11:06:43;;;;;;;4.82;1.30;;;;;;;25.88;25.45;97390.88;5068720;28;20041;-26
2021/04/15 11:09:34;;;;;;;3.50;1.20;;;;;;;25.89;25.48;97384.72;5069121;28;20040;-28
2021/04/15 11:12:01;;;;;;;7.18;1.25;;;;;;;25.90;25.43;97391.66;5065325;28;20109;-27
2021/04/15 11:14:30;;;;;;;2.40;1.00;;;;;;;25.91;25.47;97388.09;5070112;28;21006;-25
2021/04/15 11:16:58;;;;;;;5.22;1.10;;;;;;;25.92;25.55;97387.19;5064119;28;20060;-24
2021/04/15 11:19:28;;;;;;;4.97;1.20;;;;;;;25.93;25.57;97386.28;5063502;28;20028;-24
2021/04/15 11:21:56;;;;;;;2.55;0.95;;;;;;;25.93;25.51;97378.41;5063962;28;20085;-23
2021/04/15 11:24:32;;;;;;;3.95;1.08;;;;;;;25.96;25.58;97386.13;5052393;28;20028;-25
2021/04/15 11:27:02;;;;;;;2.78;1.15;;;;;;;25.95;25.68;97380.03;5064187;28;20023;-25
2021/04/15 11:29:46;;;;;;;4.15;1.00;;;;;;;25.96;25.59;97380.88;5064509;28;20035;-26
2021/04/15 11:32:34;;;;;;;4.60;1.30;;;;;;;25.98;25.62;97378.19;5062056;28;20156;-26
2021/04/15 11:35:11;;;;;;;4.68;1.38;;;;;;;25.99;25.87;97375.50;5065311;28;20035;-26
2021/04/15 11:37:40;;;;;;;12.65;2.00;;;;;;;26.00;25.95;97382.44;5062546;28;20028;-27
2021/04/15 11:40:35;;;;;;;9.23;1.80;;;;;;;26.01;26.14;97376.25;5064273;28;20024;-28
2021/04/15 11:43:16;;;;;;;10.20;1.95;;;;;;;26.02;26.14;97371.88;5064200;28;20028;-25
2021/04/15 11:45:41;;;;;;;6.38;1.58;;;;;;;26.04;26.13;97372.66;5052025;28;20035;-28
2021/04/15 11:48:11;;;;;;;7.47;1.40;;;;;;;26.04;26.23;97370.88;5063446;28;20028;-25
2021/04/15 11:50:36;;;;;;;5.07;1.17;;;;;;;26.06;26.04;97369.06;5062901;28;20060;-24
2021/04/15 11:53:37;;;;;;;3.65;1.23;;;;;;;26.06;25.98;97368.19;5056961;28;20032;-31
2021/04/15 11:56:24;;;;;;;7.97;1.33;;;;;;;26.06;25.94;97358.56;5064616;28;20549;-25
2021/04/15 11:58:51;;;;;;;4.75;1.63;;;;;;;26.07;26.15;97362.88;5062357;28;20020;-25
2021/04/15 12:01:27;;;;;;;4.80;1.73;;;;;;;26.08;26.14;97371.59;5062469;28;20036;-26
2021/04/15 12:04:05;;;;;;;4.07;1.40;;;;;;;26.10;26.22;97372.38;5065160;28;20131;-23
2021/04/15 12:06:49;;;;;;;6.47;1.45;;;;;;;26.12;26.06;97374.94;5067961;28;20025;-25
2021/04/15 12:09:16;;;;;;;6.45;2.00;;;;;;;26.14;26.26;97375.72;5059525;28;20110;-21
2021/04/15 12:11:55;;;;;;;4.07;1.70;;;;;;;26.15;26.30;97369.53;5038215;28;20033;-25
2021/04/15 12:14:20;;;;;;;3.60;1.50;;;;;;;26.15;26.22;97374.78;5051837;28;20097;-23
2021/04/15 12:16:49;;;;;;;3.55;1.40;;;;;;;26.15;26.16;97375.66;5056278;28;20588;-22
2021/04/15 12:19:17;;;;;;;21.35;1.73;;;;;;;26.17;26.30;97367.72;5064143;28;20035;-29
2021/04/15 12:22:01;;;;;;;3.97;1.40;;;;;;;26.16;26.39;97374.72;5056907;28;20044;-29
2021/04/15 12:25:01;;;;;;;6.70;1.77;;;;;;;26.18;26.26;97369.41;5061300;28;20094;-20